Time;durP1;ratioP1;P1;durP2;ratioP2;P2;SDS_P1;SDS_P2;PMS_P1;PMS_P2;Temp;Humidity;BMP_temperature;BMP_pressure;BME280_temperature;BME280_humidity;BME280_pressure;Samples;Min_cycle;Max_cycle;Signal;HPM_P1;HPM_P2
2024/03/02 00:01:59;;;;;;;5.65;1.02;;;4.00;99.90;;;;;;6267374;28;20060;-82
2024/03/02 00:05:01;;;;;;;4.45;1.23;;;4.10;99.90;;;;;;6256328;28;20049;-82
2024/03/02 00:08:02;;;;;;;6.95;1.52;;;4.00;99.90;;;;;;6250202;28;20408;-82
2024/03/02 00:11:04;;;;;;;5.10;1.15;;;4.80;99.90;;;;;;6244482;28;20050;-82
2024/03/02 00:14:06;;;;;;;5.25;1.33;;;3.90;99.90;;;;;;6246224;28;20423;-82
2024/03/02 00:17:08;;;;;;;5.75;1.20;;;4.00;99.90;;;;;;6244282;28;20056;-82
2024/03/02 00:20:09;;;;;;;5.45;1.20;;;3.90;99.90;;;;;;6255847;28;20424;-82
2024/03/02 00:23:11;;;;;;;4.75;1.45;;;3.90;99.90;;;;;;6265357;28;20140;-83
2024/03/02 00:26:13;;;;;;;4.90;1.10;;;3.80;99.90;;;;;;6268454;28;20049;-82
2024/03/02 00:29:15;;;;;;;5.35;1.30;;;4.10;99.90;;;;;;6222865;28;20064;-82
2024/03/02 00:32:16;;;;;;;5.82;1.30;;;3.90;99.90;;;;;;6264398;28;20592;-82
2024/03/02 00:35:18;;;;;;;5.00;1.17;;;4.00;99.90;;;;;;6268352;28;20155;-82
2024/03/02 00:38:20;;;;;;;3.63;1.17;;;3.90;99.90;;;;;;6244814;28;20515;-82
2024/03/02 00:41:22;;;;;;;6.40;1.27;;;4.70;99.90;;;;;;6269654;28;20053;-83
2024/03/02 00:44:24;;;;;;;6.57;1.50;;;3.80;99.90;;;;;;6254472;28;20064;-82
2024/03/02 00:47:25;;;;;;;7.28;1.38;;;4.20;99.90;;;;;;6281829;28;20059;-82
2024/03/02 00:50:27;;;;;;;7.72;1.60;;;3.80;99.90;;;;;;6269764;28;20056;-82
2024/03/02 00:53:34;;;;;;;8.05;1.30;;;4.20;99.90;;;;;;6243461;28;20054;-82
2024/03/02 00:56:36;;;;;;;9.10;1.38;;;3.90;99.90;;;;;;6267718;28;20056;-82
2024/03/02 00:59:38;;;;;;;8.35;1.58;;;4.00;99.90;;;;;;6241036;28;20516;-82
2024/03/02 01:02:39;;;;;;;11.30;1.40;;;4.00;99.90;;;;;;6262882;28;20053;-82
2024/03/02 01:05:42;;;;;;;6.95;1.27;;;4.00;99.90;;;;;;6250833;28;20068;-82
2024/03/02 01:08:43;;;;;;;7.93;1.63;;;4.10;99.90;;;;;;6243726;28;20140;-81
2024/03/02 01:11:45;;;;;;;10.00;1.40;;;4.10;99.90;;;;;;6267218;28;20067;-81
2024/03/02 01:14:46;;;;;;;8.75;1.33;;;4.00;99.90;;;;;;6246353;28;20051;-81
2024/03/02 01:17:48;;;;;;;10.35;1.88;;;3.90;99.90;;;;;;6267502;28;20052;-81
2024/03/02 01:20:55;;;;;;;8.18;1.40;;;3.90;99.90;;;;;;6243157;28;20783;-81
2024/03/02 01:23:57;;;;;;;12.77;1.80;;;4.10;99.90;;;;;;6279649;28;20057;-81
2024/03/02 01:26:59;;;;;;;11.70;1.77;;;3.90;99.90;;;;;;6267040;28;20057;-81
2024/03/02 01:30:00;;;;;;;17.85;2.33;;;4.20;99.90;;;;;;6238132;28;20049;-81
2024/03/02 01:33:02;;;;;;;8.95;1.70;;;3.90;99.90;;;;;;6282274;28;20053;-81
2024/03/02 01:36:04;;;;;;;7.18;1.40;;;4.00;99.90;;;;;;6243476;28;20166;-82
2024/03/02 01:39:09;;;;;;;6.68;1.48;;;4.00;99.90;;;;;;6264935;28;20057;-82
2024/03/02 01:42:10;;;;;;;9.27;1.50;;;4.20;99.90;;;;;;6267520;28;20076;-82
2024/03/02 01:45:12;;;;;;;10.30;1.50;;;4.00;99.90;;;;;;6227502;28;20049;-82
2024/03/02 01:48:14;;;;;;;11.45;1.92;;;4.50;99.90;;;;;;6271390;28;20049;-82
2024/03/02 01:51:16;;;;;;;8.50;1.45;;;4.70;99.90;;;;;;6262518;28;20179;-82
2024/03/02 01:54:17;;;;;;;8.93;1.50;;;4.30;99.90;;;;;;6272004;28;20165;-82
2024/03/02 01:57:19;;;;;;;10.13;1.25;;;4.30;99.90;;;;;;6271248;28;20079;-82
2024/03/02 02:00:21;;;;;;;9.30;1.45;;;4.40;99.90;;;;;;6253206;28;20059;-82
2024/03/02 02:03:22;;;;;;;8.38;1.65;;;4.40;99.90;;;;;;6262335;28;20079;-83
2024/03/02 02:06:24;;;;;;;8.90;2.05;;;4.60;99.90;;;;;;6283023;28;20134;-82
2024/03/02 02:09:26;;;;;;;12.88;1.80;;;4.60;99.90;;;;;;6272088;28;20416;-82
2024/03/02 02:12:27;;;;;;;10.48;1.38;;;4.70;99.90;;;;;;6253332;28;20049;-83
2024/03/02 02:15:29;;;;;;;9.73;1.67;;;4.70;99.90;;;;;;6252799;28;20057;-83
2024/03/02 02:18:31;;;;;;;12.15;1.65;;;4.80;99.90;;;;;;6250751;28;20042;-83
2024/03/02 02:21:33;;;;;;;13.65;1.80;;;4.70;99.90;;;;;;6252520;28;20060;-82
2024/03/02 02:24:35;;;;;;;9.68;1.92;;;4.80;99.90;;;;;;6262302;28;20053;-82
2024/03/02 02:27:37;;;;;;;8.25;1.30;;;4.80;99.90;;;;;;6253122;28;20092;-82
2024/03/02 02:30:38;;;;;;;9.88;1.73;;;4.90;99.90;;;;;;6211543;28;20056;-82
2024/03/02 02:33:40;;;;;;;8.50;1.33;;;4.90;99.90;;;;;;6221957;28;20144;-82
2024/03/02 02:36:42;;;;;;;11.05;1.52;;;4.90;99.90;;;;;;6269991;28;20053;-82
2024/03/02 02:39:46;;;;;;;11.27;1.85;;;4.90;99.90;;;;;;6246173;28;20049;-82
2024/03/02 02:42:48;;;;;;;11.32;1.92;;;5.00;99.90;;;;;;6268329;28;20087;-82
2024/03/02 02:45:50;;;;;;;10.18;2.10;;;5.00;99.90;;;;;;6243057;28;20053;-82
2024/03/02 02:48:53;;;;;;;11.48;2.20;;;5.10;99.90;;;;;;6221092;28;20053;-82
2024/03/02 02:51:54;;;;;;;17.08;2.10;;;5.20;99.90;;;;;;6285020;28;20045;-82
2024/03/02 02:54:56;;;;;;;12.88;1.45;;;5.20;99.90;;;;;;6253507;28;20053;-82
2024/03/02 02:57:58;;;;;;;12.48;1.70;;;5.30;99.90;;;;;;6266358;28;20136;-83
2024/03/02 03:01:00;;;;;;;14.35;1.92;;;5.30;99.90;;;;;;6227660;28;20124;-83
2024/03/02 03:04:01;;;;;;;14.85;1.95;;;5.40;99.90;;;;;;6244684;28;20057;-83
2024/03/02 03:07:03;;;;;;;11.88;2.00;;;5.40;99.90;;;;;;6247670;28;20064;-83
2024/03/02 03:10:05;;;;;;;9.20;1.60;;;5.40;99.90;;;;;;6268118;28;20052;-82
2024/03/02 03:13:08;;;;;;;10.57;1.40;;;5.40;99.90;;;;;;6265247;28;20050;-83
2024/03/02 03:16:09;;;;;;;15.57;1.80;;;5.40;99.90;;;;;;6242324;28;20060;-83
2024/03/02 03:19:11;;;;;;;9.50;2.15;;;5.40;99.90;;;;;;6242855;28;20053;-83
2024/03/02 03:22:13;;;;;;;11.10;2.13;;;5.40;99.90;;;;;;6284796;28;20743;-82
2024/03/02 03:25:14;;;;;;;10.35;1.50;;;5.40;99.90;;;;;;6261797;28;20398;-83
2024/03/02 03:28:17;;;;;;;13.13;1.73;;;5.40;99.90;;;;;;6257771;28;20049;-81
2024/03/02 03:31:19;;;;;;;13.30;2.00;;;5.40;99.90;;;;;;6260222;28;20500;-83
2024/03/02 03:34:21;;;;;;;11.73;1.50;;;5.40;99.90;;;;;;6268912;28;20052;-83
2024/03/02 03:37:23;;;;;;;14.77;2.08;;;5.40;99.90;;;;;;6268350;28;20054;-83
2024/03/02 03:40:25;;;;;;;11.35;1.50;;;5.40;99.90;;;;;;6268993;28;20072;-82
2024/03/02 03:43:27;;;;;;;12.20;1.80;;;5.40;99.90;;;;;;6256456;28;20162;-82
2024/03/02 03:46:29;;;;;;;11.00;1.50;;;5.40;99.90;;;;;;6264678;28;20084;-82
2024/03/02 03:49:30;;;;;;;13.73;1.80;;;5.40;99.90;;;;;;6268712;28;20060;-82
2024/03/02 03:52:32;;;;;;;14.38;2.20;;;5.40;99.90;;;;;;6258249;28;20053;-82
2024/03/02 03:55:34;;;;;;;19.75;2.42;;;5.50;99.90;;;;;;6268994;28;20849;-82
2024/03/02 03:58:35;;;;;;;13.07;2.00;;;5.60;99.90;;;;;;6260327;28;20517;-82
2024/03/02 04:01:37;;;;;;;17.05;2.15;;;5.60;99.90;;;;;;6268395;28;20057;-82
2024/03/02 04:04:39;;;;;;;10.43;2.13;;;5.60;99.90;;;;;;6244153;28;20564;-82
2024/03/02 04:07:40;;;;;;;14.27;2.13;;;5.60;99.90;;;;;;6267758;28;20069;-82
2024/03/02 04:10:42;;;;;;;18.92;2.40;;;5.60;99.90;;;;;;6244198;28;20080;-82
2024/03/02 04:13:44;;;;;;;14.00;2.38;;;5.60;99.90;;;;;;6248875;28;20815;-83
2024/03/02 04:16:46;;;;;;;12.75;1.98;;;5.60;99.90;;;;;;6267890;28;20059;-81
2024/03/02 04:19:47;;;;;;;12.52;2.25;;;5.70;99.90;;;;;;6252440;28;20056;-81
2024/03/02 04:22:49;;;;;;;13.32;2.40;;;5.90;99.90;;;;;;6254558;28;20055;-82
2024/03/02 04:25:51;;;;;;;15.70;2.33;;;5.70;99.90;;;;;;6251432;28;20422;-81
2024/03/02 04:28:52;;;;;;;11.98;2.00;;;5.60;99.90;;;;;;6239948;28;20068;-81
2024/03/02 04:31:54;;;;;;;16.30;2.35;;;5.60;99.90;;;;;;6278812;28;20049;-81
2024/03/02 04:34:56;;;;;;;17.05;2.20;;;5.60;99.90;;;;;;6250800;28;20099;-82
2024/03/02 04:37:58;;;;;;;11.18;2.03;;;5.60;99.90;;;;;;6244517;28;20054;-82
2024/03/02 04:40:59;;;;;;;15.20;2.22;;;5.60;99.90;;;;;;6267799;28;20053;-81
2024/03/02 04:44:01;;;;;;;16.85;2.53;;;5.70;99.90;;;;;;6265408;28;20052;-81
2024/03/02 04:47:03;;;;;;;12.07;2.22;;;5.60;99.90;;;;;;6243673;28;20057;-82
2024/03/02 04:50:05;;;;;;;9.65;2.35;;;5.60;99.90;;;;;;6267708;28;20052;-82
2024/03/02 04:53:07;;;;;;;13.43;2.00;;;5.60;99.90;;;;;;6244144;28;20127;-82
2024/03/02 04:59:30;;;;;;;14.82;2.45;;;5.60;99.90;;;;;;6249607;28;20052;-82
2024/03/02 05:02:32;;;;;;;13.13;1.75;;;5.60;99.90;;;;;;6259197;28;20683;-82
2024/03/02 05:05:35;;;;;;;13.05;1.88;;;5.60;99.90;;;;;;6278487;28;20057;-82
2024/03/02 05:08:36;;;;;;;18.65;2.55;;;5.60;99.90;;;;;;6249794;28;20053;-82
2024/03/02 05:14:40;;;;;;;17.00;2.42;;;5.60;99.90;;;;;;6249548;28;20056;-82
2024/03/02 05:17:44;;;;;;;15.25;2.13;;;5.70;99.90;;;;;;6258729;28;20050;-82
2024/03/02 05:20:46;;;;;;;14.95;2.08;;;5.70;99.90;;;;;;6286562;28;20076;-82
2024/03/02 05:23:48;;;;;;;12.00;1.88;;;5.70;99.90;;;;;;6251672;28;20045;-82
2024/03/02 05:26:50;;;;;;;18.15;2.53;;;5.70;99.90;;;;;;6272575;28;20067;-82
2024/03/02 05:29:51;;;;;;;16.85;1.88;;;5.70;99.90;;;;;;6245399;28;20057;-82
2024/03/02 05:32:53;;;;;;;12.07;1.90;;;5.70;99.90;;;;;;6271992;28;20084;-83
2024/03/02 05:35:55;;;;;;;16.17;2.20;;;5.70;99.90;;;;;;6248915;28;20428;-81
2024/03/02 05:38:56;;;;;;;13.73;2.22;;;5.70;99.90;;;;;;6287072;28;20048;-82
2024/03/02 05:41:58;;;;;;;13.60;2.20;;;5.80;99.90;;;;;;6249086;28;20050;-83
2024/03/02 05:44:59;;;;;;;18.45;2.35;;;5.70;99.90;;;;;;6254761;28;20049;-84
2024/03/02 05:48:01;;;;;;;13.85;2.50;;;5.70;99.90;;;;;;6249889;28;20481;-84
2024/03/02 05:51:03;;;;;;;17.92;2.40;;;5.70;99.90;;;;;;6284158;28;20131;-84
2024/03/02 05:54:05;;;;;;;19.10;2.80;;;5.60;99.90;;;;;;6272941;28;20060;-84
2024/03/02 06:00:27;;;;;;;18.00;2.33;;;5.70;99.90;;;;;;6254969;28;20045;-84
2024/03/02 06:03:28;;;;;;;15.48;2.17;;;5.60;99.90;;;;;;6265046;28;20057;-84
2024/03/02 06:06:32;;;;;;;14.90;2.08;;;5.70;99.90;;;;;;6288897;28;20504;-85
2024/03/02 06:09:34;;;;;;;14.98;2.38;;;5.70;99.90;;;;;;6279332;28;20060;-84
2024/03/02 06:12:35;;;;;;;18.33;2.22;;;5.70;99.90;;;;;;6254164;28;20063;-85
2024/03/02 06:15:37;;;;;;;14.90;2.63;;;5.70;99.90;;;;;;6239221;28;20053;-83
2024/03/02 06:18:39;;;;;;;15.68;2.30;;;5.80;99.90;;;;;;6253979;28;20045;-84
2024/03/02 06:21:41;;;;;;;18.23;2.55;;;5.80;99.90;;;;;;6252694;28;20051;-84
2024/03/02 06:24:42;;;;;;;21.48;2.88;;;5.90;99.90;;;;;;6273273;28;20053;-84
2024/03/02 06:27:44;;;;;;;14.02;2.63;;;5.80;99.90;;;;;;6248745;28;20045;-84
2024/03/02 06:30:46;;;;;;;16.35;2.15;;;5.90;99.90;;;;;;6266263;28;20061;-84
2024/03/02 06:33:48;;;;;;;12.20;2.03;;;5.90;99.90;;;;;;6224774;28;20045;-85
2024/03/02 06:36:50;;;;;;;13.90;2.58;;;6.00;99.90;;;;;;6254638;28;20565;-83
2024/03/02 06:39:51;;;;;;;13.30;2.40;;;6.00;99.90;;;;;;6274312;28;20048;-85
2024/03/02 06:42:53;;;;;;;14.35;1.75;;;6.00;99.90;;;;;;6266533;28;20475;-84
2024/03/02 06:45:55;;;;;;;11.25;1.90;;;6.00;99.90;;;;;;6274503;28;20558;-84
2024/03/02 06:48:57;;;;;;;10.52;1.45;;;6.00;99.90;;;;;;6255371;28;20569;-85
2024/03/02 06:51:59;;;;;;;9.98;1.63;;;6.00;99.90;;;;;;6248500;28;20519;-83
2024/03/02 06:55:01;;;;;;;12.82;2.15;;;6.00;99.90;;;;;;6287434;28;20060;-84
2024/03/02 06:58:02;;;;;;;15.88;2.35;;;6.00;99.90;;;;;;6267063;28;20047;-84
2024/03/02 07:01:04;;;;;;;10.50;2.08;;;6.00;99.90;;;;;;6267768;28;20051;-85
2024/03/02 07:04:06;;;;;;;9.93;2.38;;;6.00;99.90;;;;;;6248242;28;20062;-83
2024/03/02 07:07:08;;;;;;;15.63;2.05;;;6.00;99.90;;;;;;6270315;28;20053;-85
2024/03/02 07:10:10;;;;;;;9.68;1.73;;;6.00;99.90;;;;;;6269680;28;20057;-84
2024/03/02 07:13:12;;;;;;;15.65;1.75;;;6.00;99.90;;;;;;6248875;28;20213;-81
2024/03/02 07:16:27;;;;;;;15.35;2.33;;;6.10;99.90;;;;;;6256278;28;20079;-84
2024/03/02 07:19:29;;;;;;;14.23;1.50;;;6.10;99.90;;;;;;6235500;28;20060;-84
2024/03/02 07:22:31;;;;;;;15.05;1.95;;;6.20;99.90;;;;;;6271843;28;20131;-84
2024/03/02 07:25:33;;;;;;;10.77;1.75;;;6.20;99.90;;;;;;6264855;28;20063;-84
2024/03/02 07:28:37;;;;;;;11.85;1.98;;;6.20;99.90;;;;;;6252616;28;20809;-84
2024/03/02 07:31:39;;;;;;;10.50;1.88;;;6.40;99.90;;;;;;6247838;28;20770;-85
2024/03/02 07:34:41;;;;;;;11.00;2.08;;;6.50;99.90;;;;;;6270972;28;20059;-83
2024/03/02 07:37:43;;;;;;;11.48;2.00;;;6.60;99.90;;;;;;6250234;28;20052;-83
2024/03/02 07:40:44;;;;;;;9.63;1.83;;;6.60;99.90;;;;;;6228397;28;20060;-84
2024/03/02 07:43:46;;;;;;;11.25;1.60;;;6.60;99.90;;;;;;6240181;28;20045;-83
2024/03/02 07:46:49;;;;;;;12.80;2.05;;;6.70;99.90;;;;;;6268647;28;20478;-84
2024/03/02 07:49:51;;;;;;;6.80;1.85;;;6.90;99.90;;;;;;6280649;28;20056;-84
2024/03/02 07:52:53;;;;;;;10.35;2.22;;;7.00;99.90;;;;;;6269593;28;20053;-84
2024/03/02 07:55:56;;;;;;;10.38;1.50;;;7.40;99.90;;;;;;6244959;28;20049;-86
2024/03/02 07:59:00;;;;;;;10.80;1.70;;;7.00;99.90;;;;;;6265515;28;20053;-87
2024/03/02 08:02:02;;;;;;;14.45;2.13;;;7.00;99.90;;;;;;6244641;28;20053;-86
2024/03/02 08:05:04;;;;;;;10.95;1.60;;;6.90;99.90;;;;;;6268729;28;20053;-87
2024/03/02 08:08:06;;;;;;;8.73;1.55;;;6.80;99.90;;;;;;6263151;28;20049;-85
2024/03/02 08:11:07;;;;;;;13.07;2.35;;;6.80;99.90;;;;;;6267701;28;20057;-86
2024/03/02 08:14:09;;;;;;;8.35;1.58;;;7.10;99.90;;;;;;6237485;28;20512;-85
2024/03/02 08:17:11;;;;;;;10.50;1.77;;;7.90;99.90;;;;;;6284235;28;20190;-85
2024/03/02 08:20:13;;;;;;;9.23;1.52;;;7.60;99.90;;;;;;6272255;28;20058;-86
2024/03/02 08:23:14;;;;;;;10.25;1.92;;;7.50;99.90;;;;;;6254525;28;20049;-86
2024/03/02 08:26:16;;;;;;;7.30;1.50;;;7.50;99.90;;;;;;6273521;28;20059;-87
2024/03/02 08:29:18;;;;;;;10.68;1.33;;;7.60;99.90;;;;;;6255772;28;20072;-87
2024/03/02 08:32:19;;;;;;;6.25;1.45;;;7.70;99.90;;;;;;6261474;28;20099;-86
2024/03/02 08:35:22;;;;;;;9.75;1.55;;;7.60;99.90;;;;;;6273741;28;20063;-85
2024/03/02 08:38:24;;;;;;;10.80;1.85;;;7.60;99.90;;;;;;6264467;28;20640;-85
2024/03/02 08:41:25;;;;;;;6.68;0.98;;;7.90;99.90;;;;;;6278214;28;20057;-88
2024/03/02 08:44:27;;;;;;;8.07;1.00;;;8.40;99.90;;;;;;6263913;28;20075;-85
2024/03/02 08:47:29;;;;;;;3.90;0.90;;;8.80;99.90;;;;;;6270724;28;20049;-86
2024/03/02 08:50:30;;;;;;;6.55;1.00;;;8.90;99.90;;;;;;6271241;28;20144;-84
2024/03/02 08:53:32;;;;;;;9.45;1.15;;;8.40;99.90;;;;;;6248766;28;20049;-86
2024/03/02 08:56:34;;;;;;;6.75;1.63;;;8.20;99.90;;;;;;6259242;28;20052;-84
2024/03/02 08:59:36;;;;;;;8.75;1.33;;;7.90;99.90;;;;;;6233335;28;20054;-86
2024/03/02 09:02:37;;;;;;;11.80;1.45;;;7.60;99.90;;;;;;6262643;28;20064;-83
2024/03/02 09:05:39;;;;;;;4.78;1.10;;;7.40;99.90;;;;;;6273750;28;20063;-84
2024/03/02 09:08:41;;;;;;;5.30;1.27;;;7.10;99.90;;;;;;6271164;28;20062;-84
2024/03/02 09:11:42;;;;;;;3.97;0.90;;;7.10;99.90;;;;;;6247040;28;20049;-85
2024/03/02 09:14:44;;;;;;;4.03;0.70;;;7.20;99.90;;;;;;6262282;28;20484;-85
2024/03/02 09:17:49;;;;;;;2.53;0.63;;;8.10;99.90;;;;;;6256270;28;20485;-85
2024/03/02 09:20:50;;;;;;;1.67;0.47;;;8.90;97.60;;;;;;6248431;28;20600;-84
2024/03/02 09:23:52;;;;;;;3.83;0.88;;;9.40;80.00;;;;;;6289416;28;20068;-85
2024/03/02 09:26:54;;;;;;;1.85;0.70;;;9.60;73.40;;;;;;6272058;28;20055;-86
2024/03/02 09:29:55;;;;;;;4.30;1.27;;;10.30;81.60;;;;;;6254104;28;20053;-83
2024/03/02 09:32:57;;;;;;;2.70;0.82;;;10.60;31.50;;;;;;6254461;28;20060;-84
2024/03/02 09:36:02;;;;;;;6.13;1.00;;;11.20;72.70;;;;;;6248764;28;20064;-85
2024/03/02 09:39:03;;;;;;;3.63;0.90;;;11.50;25.90;;;;;;6243626;28;20049;-83
2024/03/02 09:42:05;;;;;;;4.70;1.02;;;11.80;24.70;;;;;;6267617;28;20064;-82
2024/03/02 09:45:07;;;;;;;4.22;1.02;;;11.80;12.00;;;;;;6258784;28;20052;-82
2024/03/02 09:48:09;;;;;;;5.60;1.10;;;12.20;22.30;;;;;;6278251;28;20056;-87
2024/03/02 09:51:11;;;;;;;5.57;0.88;;;12.30;1.00;;;;;;6290158;28;20056;-86
2024/03/02 09:54:13;;;;;;;5.35;1.05;;;11.50;1.00;;;;;;6267320;28;20055;-84
2024/03/02 09:57:23;;;;;;;4.82;1.00;;;10.60;1.10;;;;;;6229000;28;20057;-84
2024/03/02 10:00:25;;;;;;;7.00;0.95;;;9.70;34.70;;;;;;6244364;28;20045;-82
2024/03/02 10:03:27;;;;;;;4.60;1.33;;;9.20;69.00;;;;;;6270872;28;20059;-83
2024/03/02 10:06:28;;;;;;;5.40;1.15;;;8.80;78.50;;;;;;6252377;28;20056;-83
2024/03/02 10:09:30;;;;;;;4.07;0.80;;;9.50;72.80;;;;;;6253096;28;20139;-85
2024/03/02 10:12:32;;;;;;;4.40;0.98;;;10.50;33.70;;;;;;6262503;28;20064;-85
2024/03/02 10:15:33;;;;;;;7.63;1.40;;;11.50;3.70;;;;;;6253032;28;20056;-84
2024/03/02 10:18:35;;;;;;;2.20;0.60;;;10.70;1.00;;;;;;6273293;28;20048;-83
2024/03/02 10:21:37;;;;;;;5.28;1.00;;;10.70;26.20;;;;;;6252993;28;20063;-85
2024/03/02 10:24:38;;;;;;;6.72;1.10;;;10.10;60.00;;;;;;6247540;28;20060;-85
2024/03/02 10:27:40;;;;;;;3.53;0.90;;;9.50;73.40;;;;;;6270806;28;20102;-86
2024/03/02 10:30:42;;;;;;;2.55;0.68;;;9.10;93.00;;;;;;6226104;28;20432;-83
2024/03/02 10:33:44;;;;;;;2.67;0.65;;;8.40;92.20;;;;;;6259208;28;20411;-84
2024/03/02 10:36:46;;;;;;;3.33;0.88;;;8.30;99.90;;;;;;6263216;28;20064;-83
2024/03/02 10:39:47;;;;;;;2.42;0.57;;;8.20;99.90;;;;;;6255060;28;20050;-83
2024/03/02 10:42:50;;;;;;;2.50;0.75;;;8.00;99.90;;;;;;6257057;28;20402;-88
2024/03/02 10:45:51;;;;;;;1.65;0.60;;;7.80;99.90;;;;;;6225845;28;20049;-84
2024/03/02 10:48:53;;;;;;;2.78;0.60;;;7.40;99.90;;;;;;6259418;28;20056;-87
2024/03/02 10:51:55;;;;;;;1.33;0.60;;;7.20;99.90;;;;;;6272180;28;20527;-82
2024/03/02 10:54:57;;;;;;;1.90;0.47;;;6.90;99.90;;;;;;6265971;28;20056;-84
2024/03/02 10:57:58;;;;;;;3.78;0.77;;;6.90;99.90;;;;;;6251150;28;20068;-83
2024/03/02 11:01:01;;;;;;;4.15;0.70;;;7.00;99.90;;;;;;6263717;28;20053;-84
2024/03/02 11:04:03;;;;;;;2.50;0.50;;;7.10;99.90;;;;;;6238597;28;20060;-83
2024/03/02 11:07:04;;;;;;;1.38;0.50;;;7.20;99.90;;;;;;6261678;28;20049;-85
2024/03/02 11:10:08;;;;;;;2.03;0.43;;;7.20;99.90;;;;;;6279836;28;20049;-85
2024/03/02 11:13:10;;;;;;;1.55;0.43;;;7.20;99.90;;;;;;6262123;28;20049;-86
2024/03/02 11:16:12;;;;;;;1.85;0.40;;;7.20;99.90;;;;;;6242383;28;20405;-85
2024/03/02 11:19:14;;;;;;;1.23;0.40;;;7.10;99.90;;;;;;6267280;28;20064;-86
2024/03/02 11:22:18;;;;;;;1.13;0.40;;;7.00;99.90;;;;;;6273353;28;20122;-86
2024/03/02 11:25:20;;;;;;;1.33;0.40;;;6.70;99.90;;;;;;6270360;28;20049;-86
2024/03/02 11:28:22;;;;;;;0.75;0.40;;;6.60;99.90;;;;;;6270794;28;20057;-85
2024/03/02 11:31:23;;;;;;;1.20;0.40;;;7.20;99.90;;;;;;6266765;28;20057;-84
2024/03/02 11:34:25;;;;;;;8.80;0.70;;;7.60;99.90;;;;;;6262076;28;20049;-84
2024/03/02 11:37:27;;;;;;;8.82;1.05;;;9.00;99.90;;;;;;6264306;28;20425;-86
2024/03/02 11:40:28;;;;;;;1.30;0.60;;;9.90;99.90;;;;;;6277869;28;20468;-86
2024/03/02 11:43:30;;;;;;;4.10;0.77;;;10.40;95.30;;;;;;6241131;28;20061;-86
2024/03/02 11:46:32;;;;;;;0.40;0.40;;;10.00;90.20;;;;;;6251555;28;20052;-84
2024/03/02 11:49:34;;;;;;;0.40;0.40;;;10.20;90.80;;;;;;6243108;28;20053;-85
2024/03/02 11:52:35;;;;;;;0.88;0.45;;;10.60;91.80;;;;;;6248964;28;20507;-85
2024/03/02 11:55:37;;;;;;;0.55;0.47;;;10.60;82.90;;;;;;6278706;28;20064;-85
2024/03/02 11:58:41;;;;;;;0.88;0.40;;;10.00;60.40;;;;;;6253645;28;20624;-82
2024/03/02 12:01:43;;;;;;;0.40;0.40;;;10.20;90.90;;;;;;6228622;28;20053;-85
2024/03/02 12:04:46;;;;;;;0.93;0.50;;;10.10;91.80;;;;;;6242034;28;20053;-84
2024/03/02 12:07:48;;;;;;;0.50;0.40;;;9.80;79.00;;;;;;6230289;28;20496;-84
2024/03/02 12:10:49;;;;;;;1.08;0.40;;;9.60;63.60;;;;;;6269942;28;20060;-84
2024/03/02 12:13:51;;;;;;;0.80;0.40;;;9.60;94.20;;;;;;6245220;28;20397;-86
2024/03/02 12:16:55;;;;;;;1.30;0.40;;;9.40;91.40;;;;;;6266139;28;20057;-87
2024/03/02 12:19:57;;;;;;;1.63;0.43;;;9.20;91.70;;;;;;6281039;28;20064;-86
2024/03/02 12:22:58;;;;;;;2.35;0.60;;;9.30;92.40;;;;;;6260932;28;20057;-86
2024/03/02 12:26:00;;;;;;;1.80;0.55;;;9.20;93.00;;;;;;6269178;28;20059;-85
2024/03/02 12:29:02;;;;;;;3.20;0.60;;;8.90;93.50;;;;;;6228169;28;20055;-87
2024/03/02 12:32:03;;;;;;;1.92;0.63;;;9.00;99.90;;;;;;6240968;28;20060;-87
2024/03/02 12:35:05;;;;;;;2.88;0.70;;;9.50;99.50;;;;;;6248901;28;20049;-87
2024/03/02 12:38:09;;;;;;;1.42;0.43;;;9.90;84.70;;;;;;6262442;28;20059;-88
2024/03/02 12:41:12;;;;;;;3.13;0.85;;;10.80;84.40;;;;;;6241169;28;20061;-86
2024/03/02 12:44:15;;;;;;;1.63;0.65;;;11.50;61.40;;;;;;6248152;28;20053;-86
2024/03/02 12:47:16;;;;;;;2.60;1.25;;;11.50;15.40;;;;;;6268134;28;20416;-88
2024/03/02 12:50:18;;;;;;;1.10;0.40;;;11.40;1.60;;;;;;6246133;28;20057;-88
2024/03/02 12:53:20;;;;;;;2.55;0.65;;;11.50;1.00;;;;;;6275770;28;20076;-89
2024/03/02 12:56:22;;;;;;;0.45;0.40;;;11.00;12.00;;;;;;6248298;28;20057;-87
2024/03/02 12:59:24;;;;;;;1.90;0.50;;;10.90;4.50;;;;;;6247365;28;20045;-89
2024/03/02 13:02:27;;;;;;;2.05;0.50;;;11.00;27.40;;;;;;6255313;28;20054;-85
2024/03/02 13:05:28;;;;;;;3.17;0.80;;;11.30;7.30;;;;;;6269101;28;20056;-86
2024/03/02 13:08:30;;;;;;;2.58;0.60;;;11.30;8.20;;;;;;6251906;28;20094;-88
2024/03/02 13:11:32;;;;;;;1.48;0.55;;;12.10;2.80;;;;;;6245540;28;20083;-89
2024/03/02 13:14:35;;;;;;;2.13;0.52;;;12.00;1.00;;;;;;6274539;28;20053;-90
2024/03/02 13:17:37;;;;;;;1.73;0.50;;;12.00;1.00;;;;;;6263035;28;20083;-88
2024/03/02 13:20:39;;;;;;;1.33;0.60;;;11.90;1.00;;;;;;6268232;28;20093;-89
2024/03/02 13:23:41;;;;;;;1.02;0.50;;;12.40;1.00;;;;;;6268605;28;20075;-88
2024/03/02 13:26:43;;;;;;;3.30;0.50;;;11.50;1.00;;;;;;6260323;28;20069;-87
2024/03/02 13:29:44;;;;;;;1.77;0.60;;;10.70;1.00;;;;;;6265616;28;20045;-89
2024/03/02 13:32:46;;;;;;;2.28;0.70;;;10.20;1.00;;;;;;6245219;28;20065;-88
2024/03/02 13:35:48;;;;;;;3.40;0.90;;;10.90;1.00;;;;;;6269060;28;20407;-89
2024/03/02 13:38:50;;;;;;;2.42;0.70;;;11.00;1.00;;;;;;6261085;28;20053;-90
2024/03/02 13:42:02;;;;;;;5.00;0.80;;;12.00;1.00;;;;;;6272386;28;20063;-89
2024/03/02 13:45:05;;;;;;;2.42;0.60;;;11.90;1.00;;;;;;6213675;28;20191;-89
2024/03/02 13:48:07;;;;;;;1.83;0.63;;;12.20;1.00;;;;;;6272304;28;20056;-88
2024/03/02 13:51:08;;;;;;;2.58;0.63;;;13.00;1.00;;;;;;6248438;28;20057;-87
2024/03/02 13:54:10;;;;;;;1.55;0.60;;;13.70;1.00;;;;;;6273284;28;20068;-90
2024/03/02 13:57:12;;;;;;;2.00;0.70;;;13.90;1.00;;;;;;6265258;28;20060;-89
2024/03/02 14:00:15;;;;;;;1.95;0.70;;;14.00;1.00;;;;;;6254467;28;20049;-87
2024/03/02 14:03:17;;;;;;;1.58;0.50;;;13.60;1.00;;;;;;6264188;28;20069;-85
2024/03/02 14:06:18;;;;;;;1.75;0.68;;;13.20;1.00;;;;;;6288563;28;20060;-84
2024/03/02 14:09:20;;;;;;;2.15;0.50;;;12.40;1.00;;;;;;6271858;28;20052;-84
2024/03/02 14:12:24;;;;;;;3.03;0.65;;;11.70;1.00;;;;;;6247356;28;20080;-84
2024/03/02 14:15:26;;;;;;;2.10;0.63;;;11.90;1.00;;;;;;6261230;28;20053;-84
2024/03/02 14:18:27;;;;;;;1.77;0.60;;;12.90;1.00;;;;;;6222393;28;20077;-84
2024/03/02 14:21:29;;;;;;;5.13;0.60;;;13.60;1.00;;;;;;6277403;28;20150;-83
2024/03/02 14:24:31;;;;;;;2.97;0.70;;;13.70;1.00;;;;;;6222553;28;20097;-84
2024/03/02 14:27:32;;;;;;;2.22;0.60;;;13.60;1.00;;;;;;6276426;28;20057;-85
2024/03/02 14:30:54;;;;;;;3.78;0.73;;;13.10;1.00;;;;;;6223244;28;20119;-86
2024/03/02 14:33:56;;;;;;;2.33;0.77;;;12.00;1.00;;;;;;6229538;28;20180;-84
2024/03/02 14:36:58;;;;;;;2.15;0.70;;;12.00;1.00;;;;;;6278780;28;20053;-84
2024/03/02 14:40:00;;;;;;;1.23;0.60;;;11.50;1.00;;;;;;6222388;28;20050;-84
2024/03/02 14:43:02;;;;;;;2.42;0.70;;;12.10;1.00;;;;;;6254439;28;20507;-85
2024/03/02 14:46:04;;;;;;;1.90;0.73;;;12.20;1.00;;;;;;6222453;28;20165;-85
2024/03/02 14:49:06;;;;;;;2.78;0.70;;;12.20;1.00;;;;;;6245730;28;20526;-85
2024/03/02 14:52:08;;;;;;;2.00;0.70;;;11.90;1.00;;;;;;6222587;28;20139;-82
2024/03/02 14:55:10;;;;;;;2.70;0.80;;;12.00;1.00;;;;;;6277902;28;20085;-83
2024/03/02 14:58:12;;;;;;;3.17;0.80;;;11.50;1.00;;;;;;6261790;28;20057;-82
2024/03/02 15:01:14;;;;;;;4.05;1.00;;;11.80;1.00;;;;;;6278464;28;20049;-83
2024/03/02 15:04:16;;;;;;;3.25;0.80;;;11.80;1.00;;;;;;6222002;28;20057;-83
2024/03/02 15:07:21;;;;;;;4.93;0.90;;;11.30;1.00;;;;;;6251731;28;20069;-82
2024/03/02 15:10:24;;;;;;;4.35;0.70;;;11.00;1.00;;;;;;6244544;28;20180;-84
2024/03/02 15:13:26;;;;;;;3.05;0.70;;;10.70;1.00;;;;;;6224544;28;20045;-83
2024/03/02 15:16:28;;;;;;;3.72;0.90;;;10.30;1.00;;;;;;6254071;28;20505;-84
2024/03/02 15:19:30;;;;;;;3.10;0.73;;;10.40;1.00;;;;;;6245469;28;20076;-84
2024/03/02 15:22:31;;;;;;;2.40;0.80;;;10.30;1.00;;;;;;6267062;28;20183;-84
2024/03/02 15:25:33;;;;;;;3.50;0.80;;;10.20;1.00;;;;;;6262288;28;20053;-84
2024/03/02 15:28:35;;;;;;;3.03;0.93;;;10.20;1.00;;;;;;6244931;28;20049;-92
2024/03/02 15:31:36;;;;;;;3.47;0.90;;;10.10;1.00;;;;;;6286002;28;20064;-85
2024/03/02 15:34:38;;;;;;;3.95;1.00;;;10.10;1.00;;;;;;6262186;28;20046;-87
2024/03/02 15:37:40;;;;;;;3.28;1.10;;;10.00;1.00;;;;;;6261230;28;20140;-86
2024/03/02 15:40:42;;;;;;;4.63;0.98;;;9.90;1.00;;;;;;6269317;28;20057;-86
2024/03/02 15:43:43;;;;;;;3.33;1.10;;;9.60;1.00;;;;;;6243350;28;20057;-85
2024/03/02 15:46:45;;;;;;;4.43;1.20;;;9.40;1.00;;;;;;6233547;28;20052;-86
2024/03/02 15:49:47;;;;;;;3.97;1.00;;;9.30;1.00;;;;;;6259082;28;20513;-84
2024/03/02 15:52:49;;;;;;;3.55;1.20;;;9.40;1.00;;;;;;6234602;28;20061;-87
2024/03/02 15:55:50;;;;;;;3.08;1.20;;;9.40;1.00;;;;;;6247626;28;20053;-86
2024/03/02 15:58:52;;;;;;;2.72;1.10;;;9.30;1.00;;;;;;6265790;28;20052;-86
2024/03/02 16:01:57;;;;;;;4.72;1.17;;;9.10;1.00;;;;;;6268178;28;20413;-85
2024/03/02 16:04:58;;;;;;;3.28;1.13;;;9.00;1.00;;;;;;6248694;28;20488;-86